createdAt,value
2022-11-12T00:00:17.390Z,35.70
2022-11-12T00:03:03.499Z,40.53
2022-11-12T00:05:50.780Z,38.50
2022-11-12T00:08:36.886Z,34.93
2022-11-12T00:11:22.526Z,33.53
2022-11-12T00:14:08.275Z,35.57
2022-11-12T00:16:54.197Z,37.63
2022-11-12T00:19:40.131Z,31.70
2022-11-12T00:22:26.075Z,38.67
2022-11-12T00:25:12.082Z,34.43
2022-11-12T00:28:24.735Z,38.57
2022-11-12T00:31:11.804Z,35.67
2022-11-12T00:33:57.315Z,31.23
2022-11-12T00:36:43.155Z,38.37
2022-11-12T00:39:29.729Z,32.23
2022-11-12T00:42:15.656Z,32.63
2022-11-12T00:45:01.730Z,32.80
2022-11-12T00:47:48.055Z,34.83
2022-11-12T00:50:33.519Z,30.50
2022-11-12T00:53:19.497Z,30.77
2022-11-12T00:56:06.220Z,31.17
2022-11-12T00:58:52.109Z,36.47
2022-11-12T01:01:39.380Z,31.87
2022-11-12T01:04:25.127Z,30.33
2022-11-12T01:07:11.177Z,33.40
2022-11-12T01:09:57.124Z,32.80
2022-11-12T01:12:42.741Z,30.60
2022-11-12T01:15:28.788Z,30.47
2022-11-12T01:18:14.961Z,31.17
2022-11-12T01:21:01.972Z,30.13
2022-11-12T01:23:47.701Z,29.87
2022-11-12T01:26:33.561Z,31.67
2022-11-12T01:29:19.503Z,30.07
2022-11-12T01:32:05.677Z,29.80
2022-11-12T01:34:51.911Z,29.20
2022-11-12T01:37:37.742Z,35.10
2022-11-12T01:40:23.846Z,32.13
2022-11-12T01:43:13.523Z,30.70
2022-11-12T01:46:00.446Z,37.67
2022-11-12T01:49:07.074Z,34.57
2022-11-12T01:51:55.439Z,28.80
2022-11-12T01:54:41.575Z,30.00
2022-11-12T01:57:34.424Z,30.97
2022-11-12T02:00:20.596Z,31.80
2022-11-12T02:03:09.999Z,31.03
2022-11-12T02:06:01.516Z,29.57
2022-11-12T02:08:47.272Z,31.83
2022-11-12T02:11:32.929Z,31.07
2022-11-12T02:14:18.904Z,31.73
2022-11-12T02:17:04.945Z,33.17
2022-11-12T02:19:52.334Z,34.37
2022-11-12T02:22:38.261Z,33.63
2022-11-12T02:25:25.386Z,32.70
2022-11-12T02:28:11.114Z,33.90
2022-11-12T02:30:57.080Z,33.33
2022-11-12T02:33:42.916Z,31.17
2022-11-12T02:36:28.979Z,33.57
2022-11-12T02:39:14.630Z,33.33
2022-11-12T02:42:00.384Z,35.87
2022-11-12T02:44:46.400Z,34.30
2022-11-12T02:47:32.290Z,32.03
2022-11-12T02:50:18.176Z,33.33
2022-11-12T02:53:04.417Z,32.73
2022-11-12T02:55:50.063Z,33.87
2022-11-12T02:58:36.192Z,35.47
2022-11-12T03:01:22.181Z,36.17
2022-11-12T03:04:08.105Z,31.77
2022-11-12T03:06:54.059Z,32.13
2022-11-12T03:09:39.869Z,36.53
2022-11-12T03:12:25.792Z,36.63
2022-11-12T03:15:11.735Z,36.73
2022-11-12T03:18:00.796Z,33.00
2022-11-12T03:20:46.375Z,34.00
2022-11-12T03:23:32.431Z,36.60
2022-11-12T03:26:18.191Z,33.57
2022-11-12T03:29:04.213Z,35.37
2022-11-12T03:31:50.154Z,34.17
2022-11-12T03:34:36.049Z,35.70
2022-11-12T03:37:22.141Z,33.20
2022-11-12T03:40:08.321Z,36.83
2022-11-12T03:42:54.167Z,36.83
2022-11-12T03:45:40.145Z,34.33
2022-11-12T03:48:26.265Z,37.13
2022-11-12T03:51:16.256Z,34.80
2022-11-12T03:54:02.478Z,34.33
2022-11-12T03:56:48.205Z,33.67
2022-11-12T03:59:34.175Z,33.50
2022-11-12T04:02:20.136Z,32.63
2022-11-12T04:05:25.535Z,33.07
2022-11-12T04:08:33.930Z,33.27
2022-11-12T04:11:20.358Z,32.27
2022-11-12T04:14:06.253Z,35.43
2022-11-12T04:17:10.728Z,33.53
2022-11-12T04:20:15.048Z,33.83
2022-11-12T04:23:00.850Z,34.77
2022-11-12T04:26:05.354Z,30.67
2022-11-12T04:29:09.695Z,32.13
2022-11-12T04:31:55.466Z,34.43
2022-11-12T04:34:41.397Z,30.33
2022-11-12T04:37:28.604Z,31.23
2022-11-12T04:40:33.750Z,36.00
2022-11-12T04:43:38.077Z,32.67
2022-11-12T04:46:24.185Z,31.27
2022-11-12T04:49:10.178Z,29.43
2022-11-12T04:52:04.996Z,33.73
2022-11-12T04:54:50.900Z,30.90
2022-11-12T04:57:36.598Z,31.83
2022-11-12T05:00:22.524Z,33.83
2022-11-12T05:03:08.323Z,40.37
2022-11-12T05:05:54.149Z,33.20
2022-11-12T05:08:40.032Z,39.77
2022-11-12T05:11:25.920Z,45.27
2022-11-12T05:14:11.812Z,39.47
2022-11-12T05:16:57.566Z,41.30
2022-11-12T05:19:44.234Z,39.90
2022-11-12T05:22:43.287Z,39.93
2022-11-12T05:25:29.875Z,37.30
2022-11-12T05:28:15.820Z,45.40
2022-11-12T05:31:01.706Z,42.50
2022-11-12T05:33:47.660Z,44.40
2022-11-12T05:36:34.137Z,46.20
2022-11-12T05:39:19.943Z,47.57
2022-11-12T05:42:14.293Z,43.57
2022-11-12T05:45:00.636Z,44.20
2022-11-12T05:47:46.454Z,45.93
2022-11-12T05:50:39.856Z,49.53
2022-11-12T05:53:31.480Z,48.17
2022-11-12T05:56:17.218Z,45.07
2022-11-12T05:59:04.738Z,47.00
2022-11-12T06:01:51.004Z,46.00
2022-11-12T06:04:36.777Z,44.60
2022-11-12T06:07:22.769Z,46.27
2022-11-12T06:10:08.939Z,49.73
2022-11-12T06:12:54.884Z,47.67
2022-11-12T06:15:40.639Z,44.47
2022-11-12T06:18:26.715Z,46.93
2022-11-12T06:21:22.951Z,51.60
2022-11-12T06:24:09.193Z,44.53
2022-11-12T06:26:54.733Z,43.37
2022-11-12T06:29:40.557Z,46.93
2022-11-12T06:32:26.464Z,47.70
2022-11-12T06:35:12.431Z,45.40
2022-11-12T06:37:58.106Z,54.00
2022-11-12T06:40:43.943Z,48.63
2022-11-12T06:43:31.158Z,52.87
2022-11-12T06:46:17.994Z,53.20
2022-11-12T06:49:03.812Z,53.50
2022-11-12T06:51:51.691Z,55.90
2022-11-12T06:54:37.162Z,58.23
2022-11-12T06:57:23.143Z,61.20
2022-11-12T07:00:11.830Z,61.17
2022-11-12T07:02:57.843Z,63.83
2022-11-12T07:05:43.945Z,62.60
2022-11-12T07:08:29.959Z,62.10
2022-11-12T07:11:16.455Z,62.83
2022-11-12T07:14:02.015Z,61.20
2022-11-12T07:16:47.829Z,64.57
2022-11-12T07:19:33.709Z,65.67
2022-11-12T07:22:19.802Z,58.83
2022-11-12T07:25:05.954Z,59.57
2022-11-12T07:27:51.737Z,60.37
2022-11-12T07:30:37.875Z,61.93
2022-11-12T07:33:23.761Z,57.97
2022-11-12T07:36:11.009Z,58.70
2022-11-12T07:38:56.777Z,59.10
2022-11-12T07:41:42.530Z,59.97
2022-11-12T07:44:28.356Z,57.70
2022-11-12T07:47:14.127Z,59.80
2022-11-12T07:50:00.334Z,61.83
2022-11-12T07:52:45.977Z,66.13
2022-11-12T07:55:32.004Z,61.83
2022-11-12T07:58:17.929Z,60.20
2022-11-12T08:01:23.390Z,68.00
2022-11-12T08:04:10.220Z,63.60
2022-11-12T08:06:55.856Z,63.40
2022-11-12T08:09:41.702Z,65.77
2022-11-12T08:12:27.589Z,67.33
2022-11-12T08:15:13.588Z,68.33
2022-11-12T08:17:59.489Z,66.20
2022-11-12T08:20:45.405Z,66.30
2022-11-12T08:23:31.287Z,64.77
2022-11-12T08:26:18.253Z,66.30
2022-11-12T08:29:08.669Z,69.00
2022-11-12T08:31:55.268Z,68.83
2022-11-12T08:34:41.557Z,67.17
2022-11-12T08:37:27.569Z,65.47
2022-11-12T08:40:13.570Z,71.17
2022-11-12T08:42:59.647Z,62.47
2022-11-12T08:45:45.516Z,67.97
2022-11-12T08:48:32.043Z,69.77
2022-11-12T08:51:17.605Z,69.50
2022-11-12T08:54:03.443Z,64.87
2022-11-12T08:56:49.428Z,81.37
2022-11-12T17:32:04.258Z,48.10
2022-11-12T17:34:50.569Z,47.43
2022-11-12T17:37:36.395Z,50.73
2022-11-12T17:40:22.299Z,45.03
2022-11-12T17:43:08.195Z,50.93
2022-11-12T17:45:54.864Z,49.20
2022-11-12T17:48:41.812Z,49.67
2022-11-12T17:51:29.659Z,46.67
2022-11-12T17:54:15.853Z,48.97
2022-11-12T17:57:01.920Z,45.10
2022-11-12T17:59:48.185Z,42.63
2022-11-12T18:02:34.145Z,44.73
2022-11-12T18:05:20.555Z,44.03
2022-11-12T18:08:06.528Z,48.67
2022-11-12T18:10:53.035Z,44.37
2022-11-12T18:13:39.085Z,48.67
2022-11-12T18:16:26.954Z,43.33
2022-11-12T18:19:12.828Z,46.30
2022-11-12T18:21:59.833Z,45.87
2022-11-12T18:24:47.820Z,43.57
2022-11-12T18:27:33.640Z,48.97
2022-11-12T18:30:19.858Z,48.50
2022-11-12T18:33:06.585Z,46.13
2022-11-12T18:36:02.517Z,46.60
2022-11-12T18:38:50.201Z,45.07
2022-11-12T18:41:36.464Z,46.90
2022-11-12T18:44:26.038Z,48.50
2022-11-12T18:47:12.219Z,47.13
2022-11-12T18:49:58.121Z,50.47
2022-11-12T18:52:44.664Z,47.47
2022-11-12T18:55:30.934Z,45.93
2022-11-12T18:58:16.918Z,52.17
2022-11-12T19:01:10.407Z,45.43
2022-11-12T19:03:57.289Z,51.80
2022-11-12T19:06:43.089Z,48.00
2022-11-12T19:09:28.992Z,50.83
2022-11-12T19:12:14.953Z,51.37
2022-11-12T19:15:00.917Z,49.93
2022-11-12T19:17:46.734Z,52.45
2022-11-12T19:20:32.726Z,56.00
2022-11-12T19:23:18.672Z,54.20
2022-11-12T19:26:05.277Z,57.57
2022-11-12T19:28:51.435Z,53.23
2022-11-12T19:31:37.396Z,59.23
2022-11-12T19:34:23.516Z,59.10
2022-11-12T19:37:32.408Z,54.90
2022-11-12T19:40:15.257Z,57.87
2022-11-12T19:43:01.164Z,59.07
2022-11-12T19:45:47.190Z,58.30
2022-11-12T19:48:33.223Z,57.87
2022-11-12T19:51:19.233Z,60.37
2022-11-12T19:54:05.261Z,60.80
2022-11-12T19:56:51.115Z,62.70
2022-11-12T19:59:37.033Z,63.40
2022-11-12T20:02:23.113Z,57.37
2022-11-12T20:05:09.300Z,62.50
2022-11-12T20:07:54.803Z,63.80
2022-11-12T20:10:40.566Z,65.40
2022-11-12T20:13:26.669Z,66.13
2022-11-12T20:16:13.613Z,71.63
2022-11-12T20:19:01.475Z,72.63
2022-11-12T20:21:47.348Z,79.43
2022-11-12T20:24:33.406Z,77.13
2022-11-12T20:27:19.369Z,71.53
2022-11-12T20:30:05.779Z,73.20
2022-11-12T20:32:52.249Z,76.00
2022-11-12T20:35:38.200Z,83.73
2022-11-12T20:38:24.935Z,82.07
2022-11-12T20:41:15.347Z,80.27
2022-11-12T20:44:01.161Z,83.43
2022-11-12T20:46:48.087Z,85.07
2022-11-12T20:49:34.203Z,81.10
2022-11-12T20:52:19.918Z,89.73
2022-11-12T20:55:06.040Z,86.23
2022-11-12T20:57:51.974Z,88.37
2022-11-12T21:00:38.925Z,86.90
2022-11-12T21:03:24.681Z,90.63
2022-11-12T21:06:12.726Z,91.97
2022-11-12T21:09:00.074Z,95.83
2022-11-12T21:11:46.031Z,100.77
2022-11-12T21:14:32.014Z,92.37
2022-11-12T21:17:19.590Z,93.50
2022-11-12T21:20:05.727Z,100.50
2022-11-12T21:22:51.886Z,102.40
2022-11-12T21:25:38.372Z,101.97
2022-11-12T21:28:24.336Z,100.50
2022-11-12T21:31:14.400Z,97.53
2022-11-12T21:34:01.057Z,105.13
2022-11-12T21:36:46.922Z,101.10
2022-11-12T21:39:32.825Z,103.30
2022-11-12T21:42:18.522Z,98.73
2022-11-12T21:45:04.726Z,98.87
2022-11-12T21:47:50.583Z,96.87
2022-11-12T21:50:36.678Z,106.37
2022-11-12T21:53:22.841Z,103.60
2022-11-12T21:56:10.637Z,105.27
2022-11-12T21:59:01.332Z,105.87
2022-11-12T22:01:47.349Z,100.63
2022-11-12T22:04:33.514Z,102.27
2022-11-12T22:07:19.343Z,107.50
2022-11-12T22:10:05.348Z,102.40
2022-11-12T22:13:19.949Z,110.10
2022-11-12T22:15:57.386Z,109.17
2022-11-12T22:18:43.452Z,110.40
2022-11-12T22:21:32.113Z,103.50
2022-11-12T22:24:21.634Z,104.50
2022-11-12T22:27:07.506Z,106.30
2022-11-12T22:29:53.478Z,107.13
2022-11-12T22:32:39.321Z,104.63
2022-11-12T22:35:25.125Z,104.03
2022-11-12T22:38:11.161Z,109.53
2022-11-12T22:41:01.773Z,102.73
2022-11-12T22:43:51.786Z,109.80
2022-11-12T22:46:37.777Z,108.63
2022-11-12T22:49:23.693Z,108.33
2022-11-12T22:52:09.653Z,115.47
2022-11-12T22:54:55.442Z,120.87
2022-11-12T22:57:41.368Z,116.00
2022-11-12T23:04:54.701Z,118.70
2022-11-12T23:07:40.662Z,120.40
2022-11-12T23:10:26.696Z,117.73
2022-11-12T23:13:12.539Z,111.47
2022-11-12T23:16:18.434Z,116.47
2022-11-12T23:19:04.290Z,113.53
2022-11-12T23:21:50.106Z,107.80
2022-11-12T23:24:35.986Z,102.97
2022-11-12T23:27:21.968Z,109.67
2022-11-12T23:30:08.148Z,105.20
2022-11-12T23:32:53.983Z,100.07
2022-11-12T23:35:40.034Z,105.30
2022-11-12T23:38:26.298Z,112.47
2022-11-12T23:41:15.145Z,112.03
2022-11-12T23:44:01.106Z,104.37
2022-11-12T23:46:47.128Z,101.90
2022-11-12T23:49:33.189Z,97.77
2022-11-12T23:52:19.319Z,98.93
2022-11-12T23:55:05.394Z,90.03
2022-11-12T23:57:53.513Z,85.40
